createdAt,value
2023-08-27T00:02:21.409Z,13.02
2023-08-27T00:04:49.359Z,13.05
2023-08-27T00:07:17.449Z,13.07
2023-08-27T00:09:45.658Z,13.09
2023-08-27T00:12:13.484Z,13.13
2023-08-27T00:14:45.132Z,13.13
2023-08-27T00:17:12.991Z,13.13
2023-08-27T00:19:40.633Z,13.10
2023-08-27T00:22:08.223Z,13.12
2023-08-27T00:24:36.109Z,13.12
2023-08-27T00:27:05.000Z,13.12
2023-08-27T00:29:32.924Z,13.13
2023-08-27T00:32:05.871Z,13.15
2023-08-27T00:34:39.419Z,13.15
2023-08-27T00:37:07.186Z,13.15
2023-08-27T00:39:35.115Z,13.15
2023-08-27T00:42:05.251Z,13.17
2023-08-27T00:44:32.991Z,13.20
2023-08-27T00:47:01.823Z,13.20
2023-08-27T00:49:30.622Z,13.19
2023-08-27T00:51:58.718Z,13.22
2023-08-27T00:54:26.498Z,13.23
2023-08-27T00:56:55.069Z,13.20
2023-08-27T00:59:22.780Z,13.23
2023-08-27T01:01:50.632Z,13.23
2023-08-27T01:04:18.269Z,13.26
2023-08-27T01:06:46.263Z,13.26
2023-08-27T01:09:22.428Z,13.26
2023-08-27T01:12:06.080Z,13.27
2023-08-27T01:14:35.918Z,13.26
2023-08-27T01:17:08.684Z,13.26
2023-08-27T01:19:36.835Z,13.26
2023-08-27T01:22:05.291Z,13.30
2023-08-27T01:24:33.291Z,13.37
2023-08-27T01:27:18.705Z,13.44
2023-08-27T01:30:13.190Z,13.47
2023-08-27T01:32:46.751Z,13.47
2023-08-27T01:35:16.910Z,13.47
2023-08-27T01:37:45.228Z,13.44
2023-08-27T01:40:13.492Z,13.42
2023-08-27T01:42:41.389Z,13.40
2023-08-27T01:45:11.609Z,13.34
2023-08-27T01:47:42.206Z,13.32
2023-08-27T01:50:11.261Z,13.26
2023-08-27T01:52:39.203Z,13.26
2023-08-27T01:55:07.688Z,13.23
2023-08-27T01:57:35.667Z,13.23
2023-08-27T02:00:04.847Z,13.20
2023-08-27T02:02:33.763Z,13.19
2023-08-27T02:05:01.741Z,13.17
2023-08-27T02:07:32.115Z,13.16
2023-08-27T02:10:00.429Z,13.19
2023-08-27T02:12:32.418Z,13.22
2023-08-27T02:15:00.775Z,13.19
2023-08-27T02:17:48.739Z,13.12
2023-08-27T02:20:16.934Z,13.00
2023-08-27T02:22:45.015Z,12.88
2023-08-27T02:25:17.695Z,12.85
2023-08-27T02:27:45.543Z,12.84
2023-08-27T02:30:13.859Z,12.84
2023-08-27T02:32:41.759Z,12.82
2023-08-27T02:35:09.796Z,12.82
2023-08-27T02:37:37.810Z,12.78
2023-08-27T02:40:06.156Z,12.81
2023-08-27T02:42:34.033Z,12.87
2023-08-27T02:45:01.924Z,12.96
2023-08-27T02:47:32.147Z,13.12
2023-08-27T02:50:00.168Z,13.24
2023-08-27T02:52:28.075Z,13.37
2023-08-27T02:54:55.988Z,13.44
2023-08-27T02:57:23.810Z,13.50
2023-08-27T02:59:51.792Z,13.47
2023-08-27T03:02:19.786Z,13.34
2023-08-27T03:04:47.784Z,13.15
2023-08-27T03:07:15.607Z,12.93
2023-08-27T03:09:43.229Z,12.81
2023-08-27T03:12:10.871Z,12.71
2023-08-27T03:14:38.492Z,12.65
2023-08-27T03:17:06.185Z,12.57
2023-08-27T03:19:34.022Z,12.51
2023-08-27T03:22:01.769Z,12.54
2023-08-27T03:24:30.408Z,12.58
2023-08-27T03:26:58.179Z,12.65
2023-08-27T03:29:26.556Z,12.74
2023-08-27T03:31:55.292Z,12.85
2023-08-27T03:34:22.983Z,12.95
2023-08-27T03:36:50.810Z,13.02
2023-08-27T03:39:19.865Z,13.12
2023-08-27T03:41:47.681Z,13.19
2023-08-27T03:44:15.287Z,13.16
2023-08-27T03:46:43.105Z,13.15
2023-08-27T03:49:11.606Z,13.12
2023-08-27T03:51:39.689Z,13.07
2023-08-27T03:54:08.595Z,12.98
2023-08-27T03:56:36.232Z,12.95
2023-08-27T03:59:03.946Z,12.95
2023-08-27T04:01:32.682Z,12.99
2023-08-27T04:04:00.536Z,13.09
2023-08-27T04:06:28.462Z,13.16
2023-08-27T04:08:56.409Z,13.20
2023-08-27T04:11:25.195Z,13.26
2023-08-27T04:13:53.239Z,13.28
2023-08-27T04:16:21.426Z,13.28
2023-08-27T04:18:49.595Z,13.28
2023-08-27T04:21:17.785Z,13.34
2023-08-27T04:23:46.799Z,13.44
2023-08-27T04:26:15.752Z,13.50
2023-08-27T04:28:43.745Z,13.57
2023-08-27T04:31:11.665Z,13.70
2023-08-27T04:33:39.555Z,13.77
2023-08-27T04:36:07.623Z,13.85
2023-08-27T04:38:36.253Z,13.89
2023-08-27T04:41:04.197Z,13.98
2023-08-27T04:43:32.121Z,14.04
2023-08-27T04:46:00.030Z,14.12
2023-08-27T04:48:28.107Z,14.16
2023-08-27T04:50:57.879Z,14.27
2023-08-27T04:53:28.449Z,14.34
2023-08-27T04:55:56.890Z,14.41
2023-08-27T04:58:25.084Z,14.51
2023-08-27T05:00:57.360Z,14.57
2023-08-27T05:03:27.033Z,14.67
2023-08-27T05:05:55.127Z,14.71
2023-08-27T05:08:23.392Z,14.78
2023-08-27T05:10:51.327Z,14.80
2023-08-27T05:13:19.339Z,14.80
2023-08-27T05:15:47.603Z,14.78
2023-08-27T05:18:15.768Z,14.82
2023-08-27T05:20:43.804Z,14.85
2023-08-27T05:23:11.725Z,14.89
2023-08-27T05:25:39.892Z,14.92
2023-08-27T05:28:07.787Z,14.89
2023-08-27T05:30:35.785Z,14.89
2023-08-27T05:33:05.154Z,14.87
2023-08-27T05:35:35.139Z,14.82
2023-08-27T05:38:03.319Z,14.87
2023-08-27T05:40:31.201Z,14.95
2023-08-27T05:42:59.391Z,15.00
2023-08-27T05:45:27.283Z,15.13
2023-08-27T05:47:55.280Z,15.23
2023-08-27T05:50:28.047Z,15.33
2023-08-27T05:52:56.277Z,15.39
2023-08-27T05:55:24.625Z,15.47
2023-08-27T05:57:52.543Z,15.58
2023-08-27T06:00:23.504Z,15.68
2023-08-27T06:02:54.057Z,15.77
2023-08-27T06:05:21.989Z,15.91
2023-08-27T06:07:49.845Z,16.05
2023-08-27T06:10:19.727Z,16.13
2023-08-27T06:12:47.648Z,16.20
2023-08-27T06:15:15.594Z,16.27
2023-08-27T06:17:43.852Z,16.34
2023-08-27T06:20:11.990Z,16.45
2023-08-27T06:22:40.041Z,16.54
2023-08-27T06:25:11.398Z,16.65
2023-08-27T06:27:39.589Z,16.77
2023-08-27T06:30:10.271Z,16.84
2023-08-27T06:32:38.876Z,16.96
2023-08-27T06:35:06.945Z,17.14
2023-08-27T06:37:35.355Z,17.23
2023-08-27T06:40:04.143Z,17.40
2023-08-27T06:42:32.219Z,17.49
2023-08-27T06:45:00.137Z,17.63
2023-08-27T06:47:30.226Z,17.67
2023-08-27T06:50:00.212Z,17.67
2023-08-27T06:52:28.204Z,17.71
2023-08-27T06:54:56.519Z,17.84
2023-08-27T06:57:24.433Z,17.88
2023-08-27T06:59:52.392Z,17.91
2023-08-27T07:02:20.330Z,17.91
2023-08-27T07:04:49.104Z,17.94
2023-08-27T07:07:17.020Z,17.95
2023-08-27T07:09:44.878Z,18.04
2023-08-27T07:12:13.904Z,18.05
2023-08-27T07:14:41.848Z,18.15
2023-08-27T07:17:09.874Z,18.21
2023-08-27T07:19:37.805Z,18.18
2023-08-27T07:22:05.692Z,18.22
2023-08-27T07:24:33.611Z,18.35
2023-08-27T07:27:01.481Z,18.52
2023-08-27T07:29:29.636Z,18.68
2023-08-27T07:31:57.476Z,18.81
2023-08-27T07:34:25.593Z,18.91
2023-08-27T07:36:55.979Z,18.98
2023-08-27T07:39:24.167Z,19.08
2023-08-27T07:41:52.267Z,19.08
2023-08-27T07:44:22.767Z,19.11
2023-08-27T07:46:50.807Z,19.10
2023-08-27T07:49:18.863Z,19.10
2023-08-27T07:51:47.438Z,19.15
2023-08-27T07:54:15.202Z,19.15
2023-08-27T07:56:43.223Z,19.15
2023-08-27T07:59:11.081Z,19.19
2023-08-27T08:01:39.779Z,19.31
2023-08-27T08:04:07.743Z,19.42
2023-08-27T08:06:35.564Z,19.50
2023-08-27T08:09:03.528Z,19.45
2023-08-27T08:11:31.174Z,19.43
2023-08-27T08:13:59.751Z,19.48
2023-08-27T08:16:27.492Z,19.55
2023-08-27T08:18:55.167Z,19.57
2023-08-27T08:21:22.910Z,19.73
2023-08-27T08:23:50.507Z,19.86
2023-08-27T08:26:18.344Z,19.94
2023-08-27T08:28:47.065Z,19.90
2023-08-27T08:31:17.406Z,19.95
2023-08-27T08:33:45.117Z,19.88
2023-08-27T08:36:12.695Z,19.81
2023-08-27T08:38:40.370Z,19.74
2023-08-27T08:41:10.302Z,19.78
2023-08-27T08:43:46.081Z,19.86
2023-08-27T08:46:17.119Z,20.00
2023-08-27T08:48:48.988Z,20.07
2023-08-27T08:51:21.187Z,20.17
2023-08-27T08:53:52.031Z,20.33
2023-08-27T08:56:28.471Z,20.33
2023-08-27T08:58:58.226Z,20.21
2023-08-27T09:01:26.470Z,20.24
2023-08-27T09:03:55.740Z,20.45
2023-08-27T09:06:24.407Z,20.53
2023-08-27T09:08:57.436Z,20.50
2023-08-27T09:11:27.359Z,20.40
2023-08-27T09:13:57.439Z,20.63
2023-08-27T09:16:25.442Z,20.91
2023-08-27T09:18:53.418Z,21.14
2023-08-27T09:21:21.441Z,21.41
2023-08-27T09:23:51.270Z,21.42
2023-08-27T09:26:22.200Z,21.32
2023-08-27T09:28:50.324Z,21.39
2023-08-27T09:31:41.447Z,21.56
2023-08-27T09:34:10.915Z,21.50
2023-08-27T09:36:39.056Z,21.55
2023-08-27T09:39:12.211Z,21.55
2023-08-27T09:41:43.046Z,21.46
2023-08-27T09:44:11.985Z,21.60
2023-08-27T09:46:41.954Z,21.93
2023-08-27T09:49:10.566Z,22.27
2023-08-27T09:51:40.727Z,22.30
2023-08-27T09:54:16.461Z,22.28
2023-08-27T09:56:49.942Z,22.59
2023-08-27T09:59:19.349Z,22.77
2023-08-27T10:01:52.111Z,22.73
2023-08-27T10:04:21.309Z,23.03
2023-08-27T10:06:49.771Z,23.35
2023-08-27T10:09:18.336Z,23.28
2023-08-27T10:11:47.581Z,22.97
2023-08-27T10:14:17.608Z,22.79
2023-08-27T10:16:46.082Z,22.56
2023-08-27T10:19:14.997Z,22.37
2023-08-27T10:21:45.977Z,22.11
2023-08-27T10:24:13.963Z,21.96
2023-08-27T10:26:45.063Z,21.92
2023-08-27T10:29:13.588Z,21.98
2023-08-27T10:31:41.604Z,22.24
2023-08-27T10:34:11.712Z,22.69
2023-08-27T10:36:44.818Z,22.87
2023-08-27T10:39:15.409Z,22.97
2023-08-27T10:41:43.441Z,22.99
2023-08-27T10:44:11.769Z,22.76
2023-08-27T10:46:39.673Z,22.70
2023-08-27T10:49:17.962Z,22.85
2023-08-27T10:51:45.793Z,22.75
2023-08-27T10:54:26.064Z,22.63
2023-08-27T10:56:56.492Z,22.83
2023-08-27T10:59:29.158Z,23.34
2023-08-27T11:02:09.684Z,23.85
2023-08-27T11:04:40.974Z,24.72
2023-08-27T11:07:16.539Z,25.30
2023-08-27T11:09:59.734Z,25.00
2023-08-27T11:12:37.590Z,24.61
2023-08-27T11:15:16.446Z,24.55
2023-08-27T11:17:46.343Z,24.61
2023-08-27T11:20:25.451Z,24.68
2023-08-27T11:23:09.388Z,24.67
2023-08-27T11:25:38.520Z,24.85
2023-08-27T11:28:08.385Z,25.06
2023-08-27T11:30:36.260Z,24.76
2023-08-27T11:33:04.489Z,24.45
2023-08-27T11:35:32.867Z,24.12
2023-08-27T11:38:01.024Z,23.96
2023-08-27T11:40:29.132Z,24.00
2023-08-27T11:42:58.014Z,23.83
2023-08-27T11:45:36.018Z,23.58
2023-08-27T11:48:08.452Z,23.31
2023-08-27T11:50:44.257Z,23.63
2023-08-27T11:53:12.968Z,24.28
2023-08-27T11:55:41.809Z,24.83
2023-08-27T11:58:11.226Z,24.89
2023-08-27T12:00:44.651Z,24.99
2023-08-27T12:03:12.922Z,24.95
2023-08-27T12:05:40.820Z,24.51
2023-08-27T12:08:09.420Z,23.92
2023-08-27T12:10:45.421Z,23.35
2023-08-27T12:13:14.975Z,22.83
2023-08-27T12:15:44.224Z,22.51
2023-08-27T12:18:12.182Z,22.34
2023-08-27T12:20:40.095Z,22.30
2023-08-27T12:23:12.373Z,22.21
2023-08-27T12:25:50.838Z,22.17
2023-08-27T12:28:19.631Z,22.17
2023-08-27T12:30:54.174Z,22.03
2023-08-27T12:33:40.930Z,21.79
2023-08-27T12:36:09.327Z,21.65
2023-08-27T12:38:37.256Z,21.65
2023-08-27T12:41:05.394Z,21.85
2023-08-27T12:43:33.420Z,21.94
2023-08-27T12:46:01.818Z,21.87
2023-08-27T12:48:29.779Z,21.67
2023-08-27T12:50:57.846Z,21.39
2023-08-27T12:53:25.628Z,21.24
2023-08-27T12:55:53.504Z,21.11
2023-08-27T12:58:21.426Z,21.03
2023-08-27T13:00:49.314Z,20.95
2023-08-27T13:03:17.564Z,20.84
2023-08-27T13:05:48.803Z,20.79
2023-08-27T13:08:16.672Z,20.79
2023-08-27T13:10:44.573Z,20.79
2023-08-27T13:13:12.458Z,20.79
2023-08-27T13:15:40.320Z,20.72
2023-08-27T13:18:08.810Z,20.67
2023-08-27T13:20:36.726Z,20.63
2023-08-27T13:23:05.163Z,20.55
2023-08-27T13:25:33.112Z,20.49
2023-08-27T13:28:01.176Z,20.48
2023-08-27T13:30:29.644Z,20.43
2023-08-27T13:32:57.545Z,20.35
2023-08-27T13:35:26.872Z,20.36
2023-08-27T13:37:54.776Z,20.35
2023-08-27T13:40:22.663Z,20.32
2023-08-27T13:42:51.944Z,20.28
2023-08-27T13:45:21.490Z,20.29
2023-08-27T13:47:52.023Z,20.35
2023-08-27T13:50:20.208Z,20.42
2023-08-27T13:52:50.679Z,20.53
2023-08-27T13:55:18.655Z,20.62
2023-08-27T13:57:48.217Z,20.67
2023-08-27T14:00:16.268Z,20.72
2023-08-27T14:02:45.014Z,20.73
2023-08-27T14:05:13.072Z,20.69
2023-08-27T14:07:41.155Z,20.59
2023-08-27T14:10:09.453Z,20.55
2023-08-27T14:12:37.367Z,20.46
2023-08-27T14:15:05.665Z,20.43
2023-08-27T14:17:34.695Z,20.39
2023-08-27T14:20:02.637Z,20.38
2023-08-27T14:22:32.088Z,20.32
2023-08-27T14:25:04.878Z,20.26
2023-08-27T14:27:35.029Z,20.25
2023-08-27T14:30:02.964Z,20.17
2023-08-27T14:32:32.516Z,20.11
2023-08-27T14:35:00.440Z,20.01
2023-08-27T14:37:28.474Z,19.95
2023-08-27T14:39:56.383Z,19.83
2023-08-27T14:42:24.551Z,19.69
2023-08-27T14:44:52.624Z,19.60
2023-08-27T14:47:20.659Z,19.50
2023-08-27T14:49:48.546Z,19.42
2023-08-27T14:52:16.525Z,19.32
2023-08-27T14:54:46.674Z,19.29
2023-08-27T14:57:14.774Z,19.28
2023-08-27T14:59:43.553Z,19.26
2023-08-27T15:02:15.322Z,19.22
2023-08-27T15:04:45.778Z,19.18
2023-08-27T15:07:13.937Z,19.14
2023-08-27T15:09:42.048Z,19.14
2023-08-27T15:12:20.907Z,19.14
2023-08-27T15:14:48.998Z,19.10
2023-08-27T15:17:17.064Z,19.01
2023-08-27T15:19:45.347Z,19.00
2023-08-27T15:22:13.299Z,19.00
2023-08-27T15:24:41.158Z,19.00
2023-08-27T15:27:09.081Z,19.00
2023-08-27T15:29:36.902Z,18.95
2023-08-27T15:32:05.901Z,18.91
2023-08-27T15:34:37.680Z,18.90
2023-08-27T15:37:06.476Z,18.93
2023-08-27T15:39:34.423Z,18.94
2023-08-27T15:42:02.542Z,18.88
2023-08-27T15:44:30.475Z,18.91
2023-08-27T15:46:58.481Z,18.93
2023-08-27T15:49:26.355Z,18.91
2023-08-27T15:51:54.410Z,18.85
2023-08-27T15:54:22.555Z,18.74
2023-08-27T15:56:50.519Z,18.73
2023-08-27T15:59:18.374Z,18.66
2023-08-27T16:01:46.270Z,18.57
2023-08-27T16:04:14.193Z,18.53
2023-08-27T16:06:42.186Z,18.49
2023-08-27T16:09:10.434Z,18.43
2023-08-27T16:11:38.317Z,18.39
2023-08-27T16:14:06.229Z,18.39
2023-08-27T16:16:34.388Z,18.35
2023-08-27T16:19:02.427Z,18.33
2023-08-27T16:21:30.978Z,18.29
2023-08-27T16:24:00.500Z,18.26
2023-08-27T16:26:30.678Z,18.24
2023-08-27T16:28:59.900Z,18.18
2023-08-27T16:31:27.733Z,18.19
2023-08-27T16:33:55.686Z,18.15
2023-08-27T16:36:23.623Z,18.18
2023-08-27T16:38:51.631Z,18.19
2023-08-27T16:41:22.046Z,18.16
2023-08-27T16:43:50.065Z,18.12
2023-08-27T16:46:18.097Z,18.05
2023-08-27T16:48:46.048Z,18.04
2023-08-27T16:51:13.919Z,17.98
2023-08-27T16:53:44.172Z,17.95
2023-08-27T16:56:12.067Z,17.90
2023-08-27T16:58:40.040Z,17.83
2023-08-27T17:01:08.102Z,17.77
2023-08-27T17:03:36.116Z,17.73
2023-08-27T17:06:04.215Z,17.64
2023-08-27T17:08:32.075Z,17.57
2023-08-27T17:11:00.309Z,17.46
2023-08-27T17:13:28.266Z,17.37
2023-08-27T17:15:56.206Z,17.32
2023-08-27T17:18:24.314Z,17.25
2023-08-27T17:20:52.665Z,17.18
2023-08-27T17:23:20.666Z,17.18
2023-08-27T17:25:48.575Z,17.16
2023-08-27T17:28:19.736Z,17.16
2023-08-27T17:30:48.958Z,17.15
2023-08-27T17:33:16.894Z,17.15
2023-08-27T17:35:44.852Z,17.12
2023-08-27T17:38:13.559Z,17.08
2023-08-27T17:40:42.091Z,17.05
2023-08-27T17:43:09.946Z,17.04
2023-08-27T17:45:37.902Z,17.01
2023-08-27T17:48:07.994Z,16.98
2023-08-27T17:50:36.847Z,16.95
2023-08-27T17:53:06.802Z,16.89
2023-08-27T17:55:35.208Z,16.82
2023-08-27T17:58:03.732Z,16.82
2023-08-27T18:00:32.502Z,16.80
2023-08-27T18:03:00.514Z,16.77
2023-08-27T18:05:28.686Z,16.71
2023-08-27T18:07:56.737Z,16.64
2023-08-27T18:10:24.444Z,16.59
2023-08-27T18:12:52.064Z,16.56
2023-08-27T18:15:19.740Z,16.50
2023-08-27T18:17:47.501Z,16.40
2023-08-27T18:20:15.556Z,16.34
2023-08-27T18:22:43.343Z,16.29
2023-08-27T18:25:11.054Z,16.25
2023-08-27T18:27:38.630Z,16.20
2023-08-27T18:30:06.925Z,16.15
2023-08-27T18:32:34.948Z,16.09
2023-08-27T18:35:02.673Z,16.04
2023-08-27T18:37:31.820Z,15.98
2023-08-27T18:39:59.632Z,15.95
2023-08-27T18:42:33.326Z,15.90
2023-08-27T18:45:01.904Z,15.82
2023-08-27T18:47:35.950Z,15.74
2023-08-27T18:50:04.767Z,15.65
2023-08-27T18:52:33.758Z,15.63
2023-08-27T18:55:02.594Z,15.57
2023-08-27T18:57:33.446Z,15.55
2023-08-27T19:00:01.445Z,15.50
2023-08-27T19:02:32.266Z,15.46
2023-08-27T19:05:00.042Z,15.46
2023-08-27T19:07:28.076Z,15.46
2023-08-27T19:09:56.304Z,15.42
2023-08-27T19:12:24.409Z,15.43
2023-08-27T19:14:52.540Z,15.37
2023-08-27T19:17:20.717Z,15.36
2023-08-27T19:19:48.648Z,15.35
2023-08-27T19:22:16.550Z,15.33
2023-08-27T19:24:44.728Z,15.27
2023-08-27T19:27:14.100Z,15.23
2023-08-27T19:29:42.001Z,15.19
2023-08-27T19:32:10.927Z,15.16
2023-08-27T19:34:38.826Z,15.15
2023-08-27T19:37:08.089Z,15.13
2023-08-27T19:39:36.139Z,15.09
2023-08-27T19:42:04.486Z,15.03
2023-08-27T19:44:32.432Z,15.00
2023-08-27T19:47:00.259Z,15.00
2023-08-27T19:49:28.175Z,14.96
2023-08-27T19:51:56.852Z,14.98
2023-08-27T19:54:26.103Z,14.95
2023-08-27T19:56:53.980Z,14.95
2023-08-27T19:59:22.005Z,14.89
2023-08-27T20:01:50.000Z,14.87
2023-08-27T20:04:17.977Z,14.81
2023-08-27T20:06:45.992Z,14.75
2023-08-27T20:09:13.840Z,14.72
2023-08-27T20:11:41.847Z,14.71
2023-08-27T20:14:09.760Z,14.71
2023-08-27T20:16:37.724Z,14.68
2023-08-27T20:19:05.726Z,14.67
2023-08-27T20:21:33.594Z,14.68
2023-08-27T20:24:01.462Z,14.67
2023-08-27T20:26:30.074Z,14.65
2023-08-27T20:29:00.250Z,14.67
2023-08-27T20:31:28.116Z,14.65
2023-08-27T20:33:56.511Z,14.61
2023-08-27T20:36:24.442Z,14.59
2023-08-27T20:38:54.292Z,14.53
2023-08-27T20:41:22.161Z,14.53
2023-08-27T20:43:50.240Z,14.54
2023-08-27T20:46:18.662Z,14.59
2023-08-27T20:48:46.697Z,14.61
2023-08-27T20:51:14.590Z,14.68
2023-08-27T20:53:44.012Z,14.77
2023-08-27T20:56:12.432Z,14.74
2023-08-27T20:58:40.355Z,14.77
2023-08-27T21:01:11.260Z,14.77
2023-08-27T21:03:41.753Z,14.77
2023-08-27T21:06:09.662Z,14.81
2023-08-27T21:08:37.474Z,14.84
2023-08-27T21:11:09.541Z,14.89
2023-08-27T21:13:37.689Z,14.96
2023-08-27T21:16:05.944Z,15.00
2023-08-27T21:18:33.591Z,15.09
2023-08-27T21:21:01.268Z,15.20
2023-08-27T21:23:28.866Z,15.30
2023-08-27T21:25:57.933Z,15.32
2023-08-27T21:28:26.860Z,15.32
2023-08-27T21:30:54.504Z,15.27
2023-08-27T21:33:22.254Z,15.26
2023-08-27T21:35:49.912Z,15.32
2023-08-27T21:38:17.591Z,15.32
2023-08-27T21:40:50.100Z,15.36
2023-08-27T21:43:18.161Z,15.39
2023-08-27T21:45:46.048Z,15.44
2023-08-27T21:48:14.334Z,15.44
2023-08-27T21:50:42.570Z,15.49
2023-08-27T21:53:10.328Z,15.53
2023-08-27T21:55:37.956Z,15.55
2023-08-27T21:58:05.574Z,15.61
2023-08-27T22:00:35.658Z,15.63
2023-08-27T22:03:03.656Z,15.70
2023-08-27T22:05:31.791Z,15.65
2023-08-27T22:07:59.669Z,15.58
2023-08-27T22:10:27.332Z,15.54
2023-08-27T22:12:54.985Z,15.50
2023-08-27T22:15:22.812Z,15.43
2023-08-27T22:17:50.436Z,15.40
2023-08-27T22:20:18.891Z,15.40
2023-08-27T22:22:46.547Z,15.44
2023-08-27T22:25:14.524Z,15.50
2023-08-27T22:27:42.638Z,15.44
2023-08-27T22:30:11.481Z,15.30
2023-08-27T22:32:39.454Z,15.27
2023-08-27T22:35:13.294Z,15.25
2023-08-27T22:37:41.136Z,15.22
2023-08-27T22:40:09.532Z,15.20
2023-08-27T22:42:38.313Z,15.18
2023-08-27T22:45:07.413Z,15.16
2023-08-27T22:47:36.888Z,15.19
2023-08-27T22:50:04.948Z,15.19
2023-08-27T22:52:34.515Z,15.10
2023-08-27T22:55:03.877Z,15.00
2023-08-27T22:57:33.171Z,14.95
2023-08-27T23:00:00.814Z,14.87
2023-08-27T23:02:28.692Z,14.84
2023-08-27T23:04:56.332Z,14.82
2023-08-27T23:07:24.220Z,14.82
2023-08-27T23:09:51.824Z,14.88
2023-08-27T23:12:19.649Z,14.92
2023-08-27T23:14:47.333Z,14.96
2023-08-27T23:17:15.285Z,14.96
2023-08-27T23:19:42.956Z,14.99
2023-08-27T23:22:10.734Z,15.02
2023-08-27T23:24:38.692Z,15.03
2023-08-27T23:27:06.420Z,15.03
2023-08-27T23:29:34.724Z,14.96
2023-08-27T23:32:02.409Z,14.96
2023-08-27T23:34:30.238Z,15.00
2023-08-27T23:37:01.274Z,15.09
2023-08-27T23:39:29.043Z,15.18
2023-08-27T23:41:56.660Z,15.26
2023-08-27T23:44:24.375Z,15.30
2023-08-27T23:46:54.593Z,15.37
2023-08-27T23:49:22.358Z,15.42
2023-08-27T23:51:50.179Z,15.42
2023-08-27T23:54:17.873Z,15.36
2023-08-27T23:56:45.557Z,15.23
2023-08-27T23:59:13.502Z,15.16
